Estación Meteorológica Peña el Pijo (Robertgarden) [ 07/19/24 12:12:48 CEST ]

Fecha Hora Presion(HPa) Temp (°C) Humedad % Rocio (°C) Viento ( m/s) Direccion Lluvia 1Hora(mm) Lluvia 24H(mm) LLuvia Total(mm)
2012-Jul-08 01:01:12 1010.300 18.8 35 2.9         167.83
2012-Jul-08 02:01:13 1010.500 16.9 39 2.8         167.83
2012-Jul-08 03:01:42 1010.100 16.6 41 3.3         167.83
2012-Jul-08 04:05:15 1010.200 15.8 43 3.2         167.83
2012-Jul-08 05:01:14 1009.900 15.6 47 4.3         167.83
2012-Jul-08 06:01:13 1009.900 16.2 48 5.1         167.83
2012-Jul-08 07:01:14 1009.900 16.1 50 5.7         167.83
2012-Jul-08 08:01:14 1010.000 17.3 51 7.0         167.83
2012-Jul-08 09:01:15 1010.100 21.9 49 10.7         167.83
2012-Jul-08 10:01:16 1009.900 27.3 37 11.3         167.83
2012-Jul-08 11:01:17 1010.100 31.4 24 8.2 0.9 NE     167.83
2012-Jul-08 12:01:11 1010.100 32.9 21 7.6         167.83
2012-Jul-08 13:01:14 1010.000 35.3 19 8.0         167.83
2012-Jul-08 14:01:14 1009.500 34.9 19 7.6         167.83
2012-Jul-08 15:01:17 1008.700 36.6 14 4.1 1.8 SSW     167.83
2012-Jul-08 16:01:20 1008.800 39.3 14 5.2 0.7 WNW     167.83
2012-Jul-08 17:01:16 1008.600 38.6 13 4.6         167.83
2012-Jul-08 18:01:16 1008.500 38.4 15 6.5 0.5 E     167.83
2012-Jul-08 19:01:12 1008.700 36.2 15 4.8         167.83
2012-Jul-08 20:01:12 1009.100 33.7 21 8.3         167.83
2012-Jul-08 21:01:12 1009.600 27.9 24 5.2         167.83
2012-Jul-08 22:01:13 1010.400 24.3 28 4.5         167.83
2012-Jul-08 23:01:13 1011.000 20.9 34 4.3         167.83

Temperatura Máxima:39°    Temperatura Mínima:15°
Presión Máxima:1011.000 Hpa    Presión Mínima:1008.500 Hpa


Volver